createdAt,value
2022-09-12T00:01:14.914Z,77.36
2022-09-12T00:03:41.573Z,77.34
2022-09-12T00:06:09.558Z,76.92
2022-09-12T00:08:36.076Z,77.39
2022-09-12T00:11:05.282Z,76.55
2022-09-12T00:13:31.588Z,77.80
2022-09-12T00:15:57.890Z,76.73
2022-09-12T00:18:24.226Z,75.26
2022-09-12T00:20:50.563Z,75.61
2022-09-12T00:23:16.856Z,75.71
2022-09-12T00:25:46.986Z,76.05
2022-09-12T00:28:14.457Z,76.99
2022-09-12T00:30:41.831Z,76.71
2022-09-12T00:33:08.698Z,76.29
2022-09-12T00:35:35.164Z,76.70
2022-09-12T00:38:01.472Z,77.74
2022-09-12T00:40:28.496Z,77.20
2022-09-12T00:42:54.781Z,77.29
2022-09-12T00:45:24.310Z,78.74
2022-09-12T00:47:50.709Z,78.19
2022-09-12T00:50:17.585Z,78.43
2022-09-12T00:52:50.282Z,79.53
2022-09-12T00:55:19.403Z,79.42
2022-09-12T00:57:50.983Z,80.41
2022-09-12T01:00:19.440Z,79.47
2022-09-12T01:02:50.756Z,79.09
2022-09-12T01:05:17.648Z,80.65
2022-09-12T01:07:44.651Z,79.29
2022-09-12T01:10:11.414Z,80.90
2022-09-12T01:12:39.136Z,80.90
2022-09-12T01:15:05.733Z,80.10
2022-09-12T01:17:40.238Z,81.14
2022-09-12T01:20:07.015Z,80.51
2022-09-12T01:22:56.286Z,80.97
2022-09-12T01:25:31.568Z,81.00
2022-09-12T01:28:16.568Z,80.55
2022-09-12T01:30:42.921Z,80.10
2022-09-12T01:33:18.625Z,79.68
2022-09-12T01:35:51.486Z,78.72
2022-09-12T01:38:23.590Z,76.58
2022-09-12T01:40:53.145Z,75.32
2022-09-12T01:43:27.054Z,75.17
2022-09-12T01:45:58.399Z,74.32
2022-09-12T01:48:29.458Z,74.11
2022-09-12T01:51:00.190Z,73.14
2022-09-12T01:53:27.986Z,73.77
2022-09-12T01:56:01.063Z,75.08
2022-09-12T01:58:30.323Z,73.75
2022-09-12T02:01:02.780Z,73.88
2022-09-12T02:03:34.905Z,74.29
2022-09-12T02:06:05.864Z,74.65
2022-09-12T02:08:35.420Z,75.81
2022-09-12T02:11:01.703Z,76.33
2022-09-12T02:13:33.833Z,77.21
2022-09-12T02:16:10.582Z,75.42
2022-09-12T02:18:39.844Z,76.02
2022-09-12T02:21:06.634Z,76.87
2022-09-12T02:23:34.686Z,78.20
2022-09-12T02:26:04.495Z,77.40
2022-09-12T02:28:33.476Z,78.81
2022-09-12T02:31:18.456Z,79.71
2022-09-12T02:33:57.042Z,78.84
2022-09-12T02:36:34.531Z,80.45
2022-09-12T02:39:00.854Z,79.06
2022-09-12T02:41:27.321Z,76.50
2022-09-12T02:43:53.736Z,76.43
2022-09-12T02:46:22.718Z,74.46
2022-09-12T02:48:49.012Z,75.31
2022-09-12T02:51:19.230Z,76.27
2022-09-12T02:53:47.862Z,79.10
2022-09-12T02:56:18.286Z,78.06
2022-09-12T02:58:45.135Z,79.90
2022-09-12T03:01:23.941Z,79.53
2022-09-12T03:03:50.229Z,80.42
2022-09-12T03:06:20.810Z,80.19
2022-09-12T03:09:10.148Z,79.50
2022-09-12T03:11:39.438Z,80.43
2022-09-12T03:14:15.653Z,79.74
2022-09-12T03:16:53.550Z,80.51
2022-09-12T03:19:32.004Z,80.75
2022-09-12T03:22:04.290Z,80.34
2022-09-12T03:24:38.032Z,80.60
2022-09-12T03:27:04.294Z,80.84
2022-09-12T03:29:31.430Z,80.91
2022-09-12T03:31:58.487Z,81.12
2022-09-12T03:34:26.331Z,80.79
2022-09-12T03:36:55.349Z,81.14
2022-09-12T03:39:24.197Z,81.77
2022-09-12T03:41:50.856Z,81.73
2022-09-12T03:44:17.613Z,80.65
2022-09-12T03:46:44.235Z,79.33
2022-09-12T03:49:10.827Z,76.32
2022-09-12T03:51:37.482Z,75.46
2022-09-12T03:54:04.039Z,74.39
2022-09-12T03:56:30.546Z,74.13
2022-09-12T03:58:57.379Z,74.48
2022-09-12T04:01:24.231Z,73.11
2022-09-12T04:03:51.660Z,72.59
2022-09-12T04:06:21.969Z,74.00
2022-09-12T04:08:50.417Z,73.64
2022-09-12T04:11:17.494Z,73.94
2022-09-12T04:13:44.564Z,72.53
2022-09-12T04:16:11.767Z,73.64
2022-09-12T04:18:38.637Z,73.14
2022-09-12T04:21:09.810Z,73.04
2022-09-12T04:23:36.241Z,73.02
2022-09-12T04:26:03.232Z,72.28
2022-09-12T04:28:29.971Z,73.61
2022-09-12T04:30:56.369Z,72.97
2022-09-12T04:33:24.487Z,72.89
2022-09-12T04:35:50.789Z,72.74
2022-09-12T04:38:17.441Z,72.70
2022-09-12T04:40:43.739Z,72.02
2022-09-12T04:43:14.204Z,72.85
2022-09-12T04:45:40.972Z,72.45
2022-09-12T04:48:07.284Z,72.34
2022-09-12T04:50:33.570Z,72.80
2022-09-12T04:52:59.891Z,72.71
2022-09-12T04:55:26.252Z,72.67
2022-09-12T04:57:52.973Z,72.90
2022-09-12T05:00:19.545Z,72.97
2022-09-12T05:02:46.381Z,72.62
2022-09-12T05:05:12.665Z,73.81
2022-09-12T05:07:42.023Z,73.81
2022-09-12T05:10:08.836Z,73.11
2022-09-12T05:12:36.006Z,73.96
2022-09-12T05:15:02.374Z,73.75
2022-09-12T05:17:29.616Z,73.84
2022-09-12T05:19:56.023Z,74.12
2022-09-12T05:22:22.784Z,75.51
2022-09-12T05:24:50.650Z,75.19
2022-09-12T05:27:17.120Z,75.82
2022-09-12T05:29:43.435Z,75.21
2022-09-12T05:32:09.792Z,76.14
2022-09-12T05:34:37.885Z,76.41
2022-09-12T05:37:04.279Z,76.93
2022-09-12T05:39:30.575Z,78.22
2022-09-12T05:41:56.857Z,78.24
2022-09-12T05:44:23.192Z,79.87
2022-09-12T05:46:51.255Z,81.19
2022-09-12T05:49:17.574Z,81.49
2022-09-12T05:51:44.992Z,81.64
2022-09-12T05:54:12.765Z,82.69
2022-09-12T05:56:40.297Z,82.87
2022-09-12T05:59:08.273Z,82.55
2022-09-12T06:01:35.073Z,83.16
2022-09-12T06:04:02.385Z,82.98
2022-09-12T06:06:29.799Z,83.63
2022-09-12T06:08:57.512Z,82.27
2022-09-12T06:11:28.686Z,82.05
2022-09-12T06:13:55.744Z,81.83
2022-09-12T06:16:23.240Z,81.94
2022-09-12T06:18:50.429Z,82.21
2022-09-12T06:21:16.785Z,81.22
2022-09-12T06:23:44.305Z,81.71
2022-09-12T06:26:10.672Z,82.08
2022-09-12T06:28:38.339Z,82.24
2022-09-12T06:31:12.395Z,81.66
2022-09-12T06:33:40.739Z,82.65
2022-09-12T06:36:12.494Z,83.04
2022-09-12T06:38:39.753Z,83.13
2022-09-12T06:41:07.583Z,83.89
2022-09-12T06:43:34.063Z,83.09
2022-09-12T06:46:00.698Z,82.41
2022-09-12T06:48:27.689Z,82.70
2022-09-12T06:50:58.477Z,82.70
2022-09-12T06:53:25.670Z,83.03
2022-09-12T06:55:58.837Z,83.80
2022-09-12T06:58:25.557Z,84.43
2022-09-12T07:00:56.013Z,84.47
2022-09-12T07:03:24.848Z,85.29
2022-09-12T07:05:51.131Z,84.80
2022-09-12T07:08:17.413Z,85.25
2022-09-12T07:10:43.856Z,86.71
2022-09-12T07:13:10.265Z,87.56
2022-09-12T07:15:36.618Z,86.89
2022-09-12T07:18:03.827Z,87.93
2022-09-12T07:20:32.867Z,88.58
2022-09-12T07:22:59.947Z,88.54
2022-09-12T07:25:26.699Z,87.79
2022-09-12T07:27:53.531Z,87.35
2022-09-12T07:30:19.914Z,87.68
2022-09-12T07:32:46.283Z,88.47
2022-09-12T07:35:12.816Z,88.32
2022-09-12T07:37:39.101Z,87.13
2022-09-12T07:40:05.669Z,88.21
2022-09-12T07:42:32.146Z,87.33
2022-09-12T07:44:58.540Z,87.24
2022-09-12T07:47:24.825Z,87.37
2022-09-12T07:49:52.813Z,87.71
2022-09-12T07:52:19.184Z,83.34
2022-09-12T07:54:45.484Z,85.67
2022-09-12T07:57:11.801Z,85.38
2022-09-12T07:59:52.398Z,82.80
2022-09-12T08:02:20.092Z,81.25
2022-09-12T08:04:49.913Z,81.02
2022-09-12T08:07:18.187Z,79.72
2022-09-12T08:09:44.710Z,80.32
2022-09-12T08:12:11.042Z,81.79
2022-09-12T08:14:37.308Z,81.24
2022-09-12T08:17:03.636Z,81.13
2022-09-12T08:19:30.025Z,79.25
2022-09-12T08:21:56.310Z,81.09
2022-09-12T08:24:22.694Z,80.52
2022-09-12T08:26:49.225Z,80.56
2022-09-12T08:29:15.523Z,82.02
2022-09-12T08:31:42.493Z,81.18
2022-09-12T08:34:08.852Z,81.47
2022-09-12T08:36:35.572Z,80.09
2022-09-12T08:39:04.526Z,79.56
2022-09-12T08:41:34.699Z,79.40
2022-09-12T08:44:04.024Z,77.51
2022-09-12T08:46:57.140Z,78.34
2022-09-12T08:49:27.982Z,77.68
2022-09-12T08:51:55.594Z,76.34
2022-09-12T08:54:25.040Z,76.10
2022-09-12T08:56:56.423Z,76.06
2022-09-12T08:59:22.713Z,76.47
2022-09-12T09:01:53.766Z,76.28
2022-09-12T09:04:43.855Z,75.75
2022-09-12T09:07:19.391Z,75.19
2022-09-12T09:09:59.103Z,75.93
2022-09-12T09:12:45.681Z,74.30
2022-09-12T09:15:35.534Z,75.96
2022-09-12T09:18:06.393Z,75.83
2022-09-12T09:20:36.557Z,75.18
2022-09-12T09:23:05.690Z,74.99
2022-09-12T09:25:41.292Z,74.43
2022-09-12T09:28:14.113Z,74.35
2022-09-12T09:30:42.580Z,74.62
2022-09-12T09:33:15.458Z,74.41
2022-09-12T09:35:45.893Z,74.74
2022-09-12T09:38:22.274Z,74.58
2022-09-12T09:40:58.000Z,74.29
2022-09-12T09:43:27.400Z,74.45
2022-09-12T09:45:54.171Z,74.55
2022-09-12T09:48:23.384Z,73.31
2022-09-12T09:50:50.365Z,73.23
2022-09-12T09:53:29.512Z,71.78
2022-09-12T09:55:56.661Z,70.17
2022-09-12T09:58:29.947Z,70.39
2022-09-12T10:01:00.924Z,70.04
2022-09-12T10:03:31.627Z,70.52
2022-09-12T10:06:02.545Z,71.82
2022-09-12T10:08:30.858Z,71.79
2022-09-12T10:11:03.460Z,72.46
2022-09-12T10:13:36.036Z,71.88
2022-09-12T10:16:05.420Z,71.83
2022-09-12T10:18:35.011Z,71.84
2022-09-12T10:21:01.717Z,70.18
2022-09-12T10:23:32.549Z,70.13
2022-09-12T10:26:00.742Z,69.96
2022-09-12T10:28:41.052Z,70.24
2022-09-12T10:31:09.143Z,70.38
2022-09-12T10:33:41.420Z,70.44
2022-09-12T10:36:07.846Z,69.66
2022-09-12T10:38:34.405Z,68.79
2022-09-12T10:41:03.524Z,68.04
2022-09-12T10:43:29.829Z,68.25
2022-09-12T10:46:19.243Z,69.16
2022-09-12T10:48:49.749Z,69.29
2022-09-12T10:51:22.113Z,69.84
2022-09-12T10:53:48.649Z,69.26
2022-09-12T10:56:25.855Z,69.64
2022-09-12T10:59:04.091Z,67.95
2022-09-12T11:01:38.152Z,68.66
2022-09-12T11:04:23.349Z,68.04
2022-09-12T11:06:58.475Z,66.61
2022-09-12T11:09:31.853Z,67.28
2022-09-12T11:12:13.435Z,68.75
2022-09-12T11:14:55.164Z,69.17
2022-09-12T11:17:21.523Z,69.17
2022-09-12T11:19:57.146Z,67.21
2022-09-12T11:22:35.421Z,67.14
2022-09-12T11:25:05.081Z,68.99
2022-09-12T11:27:37.290Z,68.90
2022-09-12T11:30:14.817Z,66.99
2022-09-12T11:33:00.277Z,67.90
2022-09-12T11:35:30.365Z,66.63
2022-09-12T11:37:56.626Z,67.03
2022-09-12T11:40:27.736Z,65.97
2022-09-12T11:42:59.335Z,66.81
2022-09-12T11:45:28.441Z,66.36
2022-09-12T11:47:57.948Z,66.16
2022-09-12T11:50:33.488Z,66.90
2022-09-12T11:53:14.853Z,66.91
2022-09-12T11:56:10.221Z,66.13
2022-09-12T11:58:37.278Z,66.36
2022-09-12T12:01:16.048Z,66.48
2022-09-12T12:03:44.033Z,65.48
2022-09-12T12:06:19.403Z,63.11
2022-09-12T12:08:46.606Z,62.93
2022-09-12T12:11:14.942Z,65.42
2022-09-12T12:13:43.126Z,63.51
2022-09-12T12:16:24.499Z,66.34
2022-09-12T12:18:55.994Z,66.57
2022-09-12T12:21:41.054Z,65.86
2022-09-12T12:24:07.317Z,65.54
2022-09-12T12:26:39.883Z,65.64
2022-09-12T12:29:18.419Z,67.69
2022-09-12T12:32:03.431Z,64.78
2022-09-12T12:34:31.336Z,65.03
2022-09-12T12:36:59.058Z,64.70
2022-09-12T12:39:31.513Z,64.10
2022-09-12T12:42:00.919Z,64.72
2022-09-12T12:44:42.545Z,64.98
2022-09-12T12:47:20.133Z,65.00
2022-09-12T12:49:51.904Z,66.02
2022-09-12T12:52:19.352Z,65.36
2022-09-12T12:54:45.911Z,66.39
2022-09-12T12:57:15.021Z,63.99
2022-09-12T12:59:49.227Z,62.76
2022-09-12T13:02:42.228Z,63.98
2022-09-12T13:05:19.840Z,65.42
2022-09-12T13:07:48.197Z,66.66
2022-09-12T13:10:29.205Z,65.61
2022-09-12T13:13:01.407Z,65.09
2022-09-12T13:15:36.742Z,63.84
2022-09-12T13:18:05.794Z,64.86
2022-09-12T13:20:33.964Z,64.90
2022-09-12T13:23:00.457Z,64.63
2022-09-12T13:25:26.807Z,65.82
2022-09-12T13:27:57.032Z,65.21
2022-09-12T13:30:23.490Z,64.15
2022-09-12T13:32:49.915Z,64.33
2022-09-12T13:35:35.539Z,63.44
2022-09-12T13:38:20.175Z,62.52
2022-09-12T13:40:52.721Z,64.62
2022-09-12T13:43:24.556Z,66.80
2022-09-12T13:45:52.628Z,65.41
2022-09-12T13:48:21.891Z,65.92
2022-09-12T13:50:48.166Z,66.40
2022-09-12T13:53:16.914Z,64.65
2022-09-12T13:55:47.291Z,63.60
2022-09-12T13:58:13.604Z,62.86
2022-09-12T14:00:40.004Z,62.46
2022-09-12T14:03:42.866Z,63.42
2022-09-12T14:06:09.221Z,64.37
2022-09-12T14:08:39.897Z,63.90
2022-09-12T14:11:16.556Z,65.09
2022-09-12T14:13:42.890Z,65.51
2022-09-12T14:16:11.290Z,65.20
2022-09-12T14:18:38.629Z,67.24
2022-09-12T14:21:15.302Z,65.52
2022-09-12T14:23:42.729Z,62.92
2022-09-12T14:26:12.235Z,63.45
2022-09-12T14:28:42.325Z,63.12
2022-09-12T14:31:15.663Z,62.41
2022-09-12T14:33:48.532Z,49.64
2022-09-12T14:36:30.303Z,67.19
2022-09-12T14:38:59.887Z,66.85
2022-09-12T14:41:29.528Z,68.25
2022-09-12T14:43:58.439Z,68.05
2022-09-12T14:46:28.403Z,68.11
2022-09-12T14:49:01.014Z,64.43
2022-09-12T14:51:30.985Z,64.49
2022-09-12T14:53:58.347Z,65.86
2022-09-12T14:56:37.697Z,66.21
2022-09-12T14:59:39.817Z,66.45
2022-09-12T15:02:19.082Z,66.79
2022-09-12T15:05:05.432Z,66.44
2022-09-12T15:07:55.210Z,67.17
2022-09-12T15:10:32.943Z,66.29
2022-09-12T15:13:08.334Z,66.66
2022-09-12T15:15:37.028Z,66.60
2022-09-12T15:18:06.632Z,66.75
2022-09-12T15:20:33.871Z,66.96
2022-09-12T15:23:00.194Z,69.13
2022-09-12T15:25:26.690Z,68.33
2022-09-12T15:27:54.245Z,67.08
2022-09-12T15:30:20.533Z,68.06
2022-09-12T15:32:47.000Z,68.30
2022-09-12T15:35:17.952Z,69.15
2022-09-12T15:37:44.566Z,69.20
2022-09-12T15:40:13.842Z,68.58
2022-09-12T15:42:40.725Z,69.28
2022-09-12T15:45:17.309Z,69.72
2022-09-12T15:47:43.673Z,70.95
2022-09-12T15:50:10.992Z,70.63
2022-09-12T15:52:37.297Z,72.15
2022-09-12T15:55:04.879Z,72.36
2022-09-12T15:57:31.249Z,72.20
2022-09-12T15:59:57.542Z,71.23
2022-09-12T16:02:23.860Z,71.85
2022-09-12T16:04:51.718Z,73.25
2022-09-12T16:07:18.004Z,73.50
2022-09-12T16:09:44.372Z,73.33
2022-09-12T16:12:10.661Z,73.13
2022-09-12T16:14:37.073Z,73.10
2022-09-12T16:17:05.154Z,74.60
2022-09-12T16:19:31.554Z,73.94
2022-09-12T16:21:57.866Z,74.15
2022-09-12T16:24:24.151Z,75.07
2022-09-12T16:26:50.451Z,75.60
2022-09-12T16:29:16.917Z,75.86
2022-09-12T16:31:43.290Z,75.93
2022-09-12T16:34:10.876Z,76.01
2022-09-12T16:36:37.210Z,76.17
2022-09-12T16:39:03.718Z,76.90
2022-09-12T16:41:30.111Z,76.26
2022-09-12T16:43:56.445Z,76.52
2022-09-12T16:46:24.264Z,77.45
2022-09-12T16:48:52.641Z,77.20
2022-09-12T16:51:21.111Z,77.61
2022-09-12T16:53:47.475Z,77.29
2022-09-12T16:56:14.335Z,76.82
2022-09-12T16:58:42.172Z,77.54
2022-09-12T17:01:12.831Z,77.35
2022-09-12T17:03:39.555Z,77.64
2022-09-12T17:06:10.572Z,77.25
2022-09-12T17:08:38.774Z,77.17
2022-09-12T17:11:09.772Z,77.13
2022-09-12T17:13:53.276Z,76.46
2022-09-12T17:16:23.626Z,76.86
2022-09-12T17:18:51.714Z,76.01
2022-09-12T17:21:18.436Z,75.85
2022-09-12T17:23:45.046Z,76.70
2022-09-12T17:26:12.057Z,75.82
2022-09-12T17:28:39.142Z,76.02
2022-09-12T17:31:06.908Z,75.88
2022-09-12T17:33:33.491Z,75.46
2022-09-12T17:36:00.622Z,75.62
2022-09-12T17:38:27.657Z,75.59
2022-09-12T17:40:59.773Z,75.08
2022-09-12T17:43:26.406Z,75.15
2022-09-12T17:45:57.176Z,75.34
2022-09-12T17:48:23.766Z,75.80
2022-09-12T17:50:50.611Z,75.78
2022-09-12T17:53:18.761Z,75.23
2022-09-12T17:55:45.084Z,75.39
2022-09-12T17:58:11.824Z,75.07
2022-09-12T18:00:56.546Z,74.94
2022-09-12T18:03:23.848Z,75.24
2022-09-12T18:05:53.976Z,74.74
2022-09-12T18:08:21.238Z,74.21
2022-09-12T18:10:48.094Z,74.26
2022-09-12T18:13:14.492Z,74.37
2022-09-12T18:15:40.857Z,74.38
2022-09-12T18:18:07.234Z,74.30
2022-09-12T18:20:33.557Z,73.76
2022-09-12T18:22:59.887Z,73.71
2022-09-12T18:25:26.301Z,73.81
2022-09-12T18:27:52.624Z,73.70
2022-09-12T18:30:22.081Z,73.58
2022-09-12T18:32:48.736Z,73.60
2022-09-12T18:35:15.202Z,73.98
2022-09-12T18:37:41.975Z,73.32
2022-09-12T18:40:09.154Z,73.17
2022-09-12T18:42:35.659Z,73.57
2022-09-12T18:45:02.769Z,73.24
2022-09-12T18:47:29.067Z,73.67
2022-09-12T18:49:55.360Z,73.55
2022-09-12T18:52:22.116Z,73.99
2022-09-12T18:54:48.379Z,73.32
2022-09-12T18:57:14.712Z,73.80
2022-09-12T18:59:41.075Z,73.06
2022-09-12T19:02:07.425Z,73.18
2022-09-12T19:04:33.837Z,73.28
2022-09-12T19:07:01.030Z,73.24
2022-09-12T19:09:27.350Z,73.13
2022-09-12T19:11:53.678Z,73.14
2022-09-12T19:14:22.669Z,73.14
2022-09-12T19:16:50.676Z,74.01
2022-09-12T19:19:16.977Z,73.81
2022-09-12T19:21:43.756Z,73.88
2022-09-12T19:24:10.786Z,72.90
2022-09-12T19:26:38.119Z,73.03
2022-09-12T19:29:04.702Z,72.41
2022-09-12T19:31:31.966Z,73.92
2022-09-12T19:34:05.703Z,73.77
2022-09-12T19:36:47.777Z,73.96
2022-09-12T19:39:14.979Z,72.85
2022-09-12T19:41:41.353Z,72.99
2022-09-12T19:44:07.793Z,73.34
2022-09-12T19:46:34.254Z,74.13
2022-09-12T19:49:00.683Z,72.83
2022-09-12T19:51:27.083Z,72.84
2022-09-12T19:53:53.497Z,72.79
2022-09-12T19:56:19.932Z,72.78
2022-09-12T19:58:49.067Z,73.82
2022-09-12T20:01:18.830Z,73.56
2022-09-12T20:03:45.911Z,73.73
2022-09-12T20:06:13.572Z,74.22
2022-09-12T20:08:42.083Z,74.04
2022-09-12T20:11:08.899Z,74.10
2022-09-12T20:13:35.461Z,73.29
2022-09-12T20:16:12.097Z,74.18
2022-09-12T20:18:38.762Z,74.60
2022-09-12T20:21:12.096Z,74.75
2022-09-12T20:23:39.276Z,74.68
2022-09-12T20:26:05.629Z,73.45
2022-09-12T20:28:32.142Z,74.08
2022-09-12T20:31:02.208Z,73.63
2022-09-12T20:33:29.081Z,74.69
2022-09-12T20:36:00.726Z,73.99
2022-09-12T20:38:27.046Z,73.14
2022-09-12T20:40:53.328Z,74.20
2022-09-12T20:43:19.654Z,73.75
2022-09-12T20:45:45.933Z,72.42
2022-09-12T20:48:12.210Z,72.81
2022-09-12T20:50:38.498Z,73.60
2022-09-12T20:53:05.221Z,73.36
2022-09-12T20:55:31.501Z,73.56
2022-09-12T20:57:57.808Z,72.62
2022-09-12T21:00:24.082Z,73.04
2022-09-12T21:02:51.289Z,71.81
2022-09-12T21:05:18.046Z,73.12
2022-09-12T21:07:44.347Z,71.90
2022-09-12T21:10:10.730Z,72.59
2022-09-12T21:12:37.708Z,71.84
2022-09-12T21:15:04.139Z,73.16
2022-09-12T21:17:30.427Z,72.54
2022-09-12T21:19:56.770Z,73.26
2022-09-12T21:22:23.068Z,72.92
2022-09-12T21:24:49.353Z,73.12
2022-09-12T21:27:15.778Z,72.86
2022-09-12T21:29:42.114Z,71.98
2022-09-12T21:32:13.469Z,71.68
2022-09-12T21:34:41.698Z,71.67
2022-09-12T21:37:08.024Z,72.34
2022-09-12T21:39:34.295Z,73.00
2022-09-12T21:42:01.001Z,72.31
2022-09-12T21:44:27.334Z,71.49
2022-09-12T21:46:53.666Z,72.68
2022-09-12T21:49:20.037Z,72.23
2022-09-12T21:51:46.360Z,72.95
2022-09-12T21:54:12.704Z,73.58
2022-09-12T21:56:39.146Z,72.17
2022-09-12T21:59:05.532Z,73.22
2022-09-12T22:01:31.899Z,73.87
2022-09-12T22:03:58.615Z,72.24
2022-09-12T22:06:24.943Z,71.81
2022-09-12T22:08:51.227Z,72.12
2022-09-12T22:11:19.750Z,71.88
2022-09-12T22:13:46.185Z,72.47
2022-09-12T22:16:12.755Z,71.87
2022-09-12T22:18:39.148Z,72.74
2022-09-12T22:21:12.340Z,72.21
2022-09-12T22:23:57.300Z,71.35
2022-09-12T22:26:23.609Z,72.11
2022-09-12T22:28:50.428Z,72.79
2022-09-12T22:31:17.147Z,72.89
2022-09-12T22:33:43.575Z,72.14
2022-09-12T22:36:09.953Z,71.67
2022-09-12T22:38:36.497Z,71.91
2022-09-12T22:41:06.758Z,72.75
2022-09-12T22:43:34.078Z,72.95
2022-09-12T22:46:00.407Z,72.57
2022-09-12T22:48:26.879Z,72.14
2022-09-12T22:50:53.234Z,72.18
2022-09-12T22:53:19.562Z,73.21
2022-09-12T22:55:46.407Z,73.46
2022-09-12T22:58:12.679Z,72.80
2022-09-12T23:00:39.046Z,73.12
2022-09-12T23:03:05.416Z,73.55
2022-09-12T23:05:31.753Z,73.88
2022-09-12T23:07:58.892Z,73.43
2022-09-12T23:10:26.993Z,73.77
2022-09-12T23:12:54.813Z,73.31
2022-09-12T23:15:21.253Z,74.05
2022-09-12T23:17:47.604Z,73.53
2022-09-12T23:20:13.890Z,74.44
2022-09-12T23:22:40.186Z,74.93
2022-09-12T23:25:06.789Z,74.93
2022-09-12T23:27:33.081Z,74.05
2022-09-12T23:29:59.416Z,75.07
2022-09-12T23:32:25.764Z,73.93
2022-09-12T23:34:52.844Z,74.62
2022-09-12T23:37:21.020Z,74.88
2022-09-12T23:39:47.705Z,74.15
2022-09-12T23:42:14.010Z,74.18
2022-09-12T23:44:40.349Z,74.55
2022-09-12T23:47:06.633Z,75.21
2022-09-12T23:49:32.912Z,74.75
2022-09-12T23:51:59.292Z,74.28
2022-09-12T23:54:25.692Z,73.75
2022-09-12T23:56:52.001Z,73.75
2022-09-12T23:59:18.350Z,74.40
